sensor_id;sensor_type;location;lat;lon;timestamp;temperature;humidity
47961;DHT22;33721;48.852;9.936;2023-01-15T00:00:50;9.70;99.90
47961;DHT22;33721;48.852;9.936;2023-01-15T00:03:17;9.60;99.90
47961;DHT22;33721;48.852;9.936;2023-01-15T00:05:42;9.60;99.90
47961;DHT22;33721;48.852;9.936;2023-01-15T00:08:08;9.70;99.90
47961;DHT22;33721;48.852;9.936;2023-01-15T00:10:34;9.60;99.90
47961;DHT22;33721;48.852;9.936;2023-01-15T00:13:00;9.60;99.90
47961;DHT22;33721;48.852;9.936;2023-01-15T00:15:26;9.60;99.90
47961;DHT22;33721;48.852;9.936;2023-01-15T00:17:51;9.70;99.90
47961;DHT22;33721;48.852;9.936;2023-01-15T00:20:17;9.80;99.90
47961;DHT22;33721;48.852;9.936;2023-01-15T00:22:43;9.80;99.90
47961;DHT22;33721;48.852;9.936;2023-01-15T00:25:09;9.90;99.90
47961;DHT22;33721;48.852;9.936;2023-01-15T00:27:54;10.10;99.90
47961;DHT22;33721;48.852;9.936;2023-01-15T00:30:19;10.00;99.90
47961;DHT22;33721;48.852;9.936;2023-01-15T00:32:45;10.20;99.90
47961;DHT22;33721;48.852;9.936;2023-01-15T00:35:18;10.20;99.90
47961;DHT22;33721;48.852;9.936;2023-01-15T00:37:45;10.20;99.90
47961;DHT22;33721;48.852;9.936;2023-01-15T00:40:12;10.40;99.90
47961;DHT22;33721;48.852;9.936;2023-01-15T00:42:38;10.40;99.90
47961;DHT22;33721;48.852;9.936;2023-01-15T00:45:05;10.50;99.90
47961;DHT22;33721;48.852;9.936;2023-01-15T00:47:42;10.50;99.90
47961;DHT22;33721;48.852;9.936;2023-01-15T00:50:10;10.60;99.90
47961;DHT22;33721;48.852;9.936;2023-01-15T00:52:36;10.60;99.90
47961;DHT22;33721;48.852;9.936;2023-01-15T00:55:02;10.60;99.90
47961;DHT22;33721;48.852;9.936;2023-01-15T00:57:28;10.60;99.90
47961;DHT22;33721;48.852;9.936;2023-01-15T00:59:54;10.70;99.90
47961;DHT22;33721;48.852;9.936;2023-01-15T01:02:19;10.70;99.90
47961;DHT22;33721;48.852;9.936;2023-01-15T01:04:45;10.70;99.90
47961;DHT22;33721;48.852;9.936;2023-01-15T01:07:11;10.90;99.90
47961;DHT22;33721;48.852;9.936;2023-01-15T01:09:37;10.90;99.90
47961;DHT22;33721;48.852;9.936;2023-01-15T01:12:03;10.80;99.90
47961;DHT22;33721;48.852;9.936;2023-01-15T01:14:29;10.80;99.90
47961;DHT22;33721;48.852;9.936;2023-01-15T01:16:54;10.80;99.90
47961;DHT22;33721;48.852;9.936;2023-01-15T01:19:21;10.70;99.90
47961;DHT22;33721;48.852;9.936;2023-01-15T01:21:48;10.80;99.90
47961;DHT22;33721;48.852;9.936;2023-01-15T01:24:19;10.70;99.90
47961;DHT22;33721;48.852;9.936;2023-01-15T01:26:46;10.70;99.90
47961;DHT22;33721;48.852;9.936;2023-01-15T01:29:14;10.50;99.90
47961;DHT22;33721;48.852;9.936;2023-01-15T01:31:40;10.50;99.90
47961;DHT22;33721;48.852;9.936;2023-01-15T01:34:08;10.60;99.90
47961;DHT22;33721;48.852;9.936;2023-01-15T01:36:38;10.70;99.90
47961;DHT22;33721;48.852;9.936;2023-01-15T01:39:06;10.60;99.90
47961;DHT22;33721;48.852;9.936;2023-01-15T01:41:32;10.60;99.90
47961;DHT22;33721;48.852;9.936;2023-01-15T01:46:49;10.70;99.90
47961;DHT22;33721;48.852;9.936;2023-01-15T01:49:15;10.80;99.90
47961;DHT22;33721;48.852;9.936;2023-01-15T01:51:49;10.90;99.90
47961;DHT22;33721;48.852;9.936;2023-01-15T01:54:19;11.00;99.90
47961;DHT22;33721;48.852;9.936;2023-01-15T01:56:47;11.00;99.90
47961;DHT22;33721;48.852;9.936;2023-01-15T01:59:15;11.10;99.90
47961;DHT22;33721;48.852;9.936;2023-01-15T02:01:42;11.00;99.90
47961;DHT22;33721;48.852;9.936;2023-01-15T02:04:09;11.00;99.90
47961;DHT22;33721;48.852;9.936;2023-01-15T02:06:36;11.10;99.90
47961;DHT22;33721;48.852;9.936;2023-01-15T02:09:04;11.10;99.90
47961;DHT22;33721;48.852;9.936;2023-01-15T02:11:30;11.10;99.90
47961;DHT22;33721;48.852;9.936;2023-01-15T02:14:04;11.10;99.90
47961;DHT22;33721;48.852;9.936;2023-01-15T02:16:57;11.10;99.90
47961;DHT22;33721;48.852;9.936;2023-01-15T02:19:30;11.10;99.90
47961;DHT22;33721;48.852;9.936;2023-01-15T02:22:31;11.00;99.90
47961;DHT22;33721;48.852;9.936;2023-01-15T02:25:05;11.00;99.90
47961;DHT22;33721;48.852;9.936;2023-01-15T02:27:34;11.00;99.90
47961;DHT22;33721;48.852;9.936;2023-01-15T02:30:11;10.90;99.90
47961;DHT22;33721;48.852;9.936;2023-01-15T02:32:50;10.90;99.90
47961;DHT22;33721;48.852;9.936;2023-01-15T02:35:21;11.00;99.90
47961;DHT22;33721;48.852;9.936;2023-01-15T02:37:52;11.00;99.90
47961;DHT22;33721;48.852;9.936;2023-01-15T02:40:19;11.00;99.90
47961;DHT22;33721;48.852;9.936;2023-01-15T02:42:48;11.00;99.90
47961;DHT22;33721;48.852;9.936;2023-01-15T02:45:16;11.00;99.90
47961;DHT22;33721;48.852;9.936;2023-01-15T02:47:48;11.00;99.90
47961;DHT22;33721;48.852;9.936;2023-01-15T02:50:20;11.10;99.90
47961;DHT22;33721;48.852;9.936;2023-01-15T02:52:52;11.10;99.90
47961;DHT22;33721;48.852;9.936;2023-01-15T02:55:27;11.10;99.90
47961;DHT22;33721;48.852;9.936;2023-01-15T02:57:56;11.00;99.90
47961;DHT22;33721;48.852;9.936;2023-01-15T03:00:25;11.10;99.90
47961;DHT22;33721;48.852;9.936;2023-01-15T03:02:59;11.00;99.90
47961;DHT22;33721;48.852;9.936;2023-01-15T03:05:30;11.00;99.90
47961;DHT22;33721;48.852;9.936;2023-01-15T03:07:59;11.10;99.90
47961;DHT22;33721;48.852;9.936;2023-01-15T03:11:07;11.00;99.90
47961;DHT22;33721;48.852;9.936;2023-01-15T03:13:34;11.10;99.90
47961;DHT22;33721;48.852;9.936;2023-01-15T03:16:21;11.00;99.90
47961;DHT22;33721;48.852;9.936;2023-01-15T03:21:49;11.00;99.90
47961;DHT22;33721;48.852;9.936;2023-01-15T03:27:01;11.00;99.90
47961;DHT22;33721;48.852;9.936;2023-01-15T03:29:30;10.90;99.90
47961;DHT22;33721;48.852;9.936;2023-01-15T03:31:58;10.90;99.90
47961;DHT22;33721;48.852;9.936;2023-01-15T03:34:25;10.90;99.90
47961;DHT22;33721;48.852;9.936;2023-01-15T03:36:54;10.80;99.90
47961;DHT22;33721;48.852;9.936;2023-01-15T03:39:20;10.90;99.90
47961;DHT22;33721;48.852;9.936;2023-01-15T03:42:01;10.90;99.90
47961;DHT22;33721;48.852;9.936;2023-01-15T03:44:47;10.80;99.90
47961;DHT22;33721;48.852;9.936;2023-01-15T03:47:49;10.70;99.90
47961;DHT22;33721;48.852;9.936;2023-01-15T03:50:25;10.70;99.90
47961;DHT22;33721;48.852;9.936;2023-01-15T03:58:01;10.30;99.90
47961;DHT22;33721;48.852;9.936;2023-01-15T04:00:34;10.30;99.90
47961;DHT22;33721;48.852;9.936;2023-01-15T04:03:03;10.30;99.90
47961;DHT22;33721;48.852;9.936;2023-01-15T04:05:31;10.20;99.90
47961;DHT22;33721;48.852;9.936;2023-01-15T04:07:59;10.20;99.90
47961;DHT22;33721;48.852;9.936;2023-01-15T04:10:25;10.30;99.90
47961;DHT22;33721;48.852;9.936;2023-01-15T04:12:51;10.20;99.90
47961;DHT22;33721;48.852;9.936;2023-01-15T04:15:17;10.10;99.90
47961;DHT22;33721;48.852;9.936;2023-01-15T04:17:43;10.20;99.90
47961;DHT22;33721;48.852;9.936;2023-01-15T04:20:10;10.20;99.90
47961;DHT22;33721;48.852;9.936;2023-01-15T04:22:35;10.10;99.90
47961;DHT22;33721;48.852;9.936;2023-01-15T04:25:02;10.20;99.90
47961;DHT22;33721;48.852;9.936;2023-01-15T04:27:28;10.20;99.90
47961;DHT22;33721;48.852;9.936;2023-01-15T04:29:54;10.30;99.90
47961;DHT22;33721;48.852;9.936;2023-01-15T04:32:19;10.30;99.90
47961;DHT22;33721;48.852;9.936;2023-01-15T04:34:45;10.30;99.90
47961;DHT22;33721;48.852;9.936;2023-01-15T04:37:12;10.30;99.90
47961;DHT22;33721;48.852;9.936;2023-01-15T04:39:38;10.20;99.90
47961;DHT22;33721;48.852;9.936;2023-01-15T04:42:03;10.20;99.90
47961;DHT22;33721;48.852;9.936;2023-01-15T04:44:48;10.30;99.90
47961;DHT22;33721;48.852;9.936;2023-01-15T04:47:13;10.30;99.90
47961;DHT22;33721;48.852;9.936;2023-01-15T04:49:39;10.40;99.90
47961;DHT22;33721;48.852;9.936;2023-01-15T04:52:05;10.50;99.90
47961;DHT22;33721;48.852;9.936;2023-01-15T04:54:30;10.50;99.90
47961;DHT22;33721;48.852;9.936;2023-01-15T04:56:56;10.60;99.90
47961;DHT22;33721;48.852;9.936;2023-01-15T04:59:24;10.60;99.90
47961;DHT22;33721;48.852;9.936;2023-01-15T05:01:51;10.60;99.90
47961;DHT22;33721;48.852;9.936;2023-01-15T05:04:16;10.60;99.90
47961;DHT22;33721;48.852;9.936;2023-01-15T05:06:42;10.60;99.90
47961;DHT22;33721;48.852;9.936;2023-01-15T05:09:08;10.60;99.90
47961;DHT22;33721;48.852;9.936;2023-01-15T05:11:35;10.70;99.90
47961;DHT22;33721;48.852;9.936;2023-01-15T05:14:01;10.70;99.90
47961;DHT22;33721;48.852;9.936;2023-01-15T05:16:27;10.80;99.90
47961;DHT22;33721;48.852;9.936;2023-01-15T05:18:57;10.80;99.90
47961;DHT22;33721;48.852;9.936;2023-01-15T05:21:25;10.80;99.90
47961;DHT22;33721;48.852;9.936;2023-01-15T05:23:52;10.90;99.90
47961;DHT22;33721;48.852;9.936;2023-01-15T05:26:19;10.90;99.90
47961;DHT22;33721;48.852;9.936;2023-01-15T05:28:45;10.90;99.90
47961;DHT22;33721;48.852;9.936;2023-01-15T05:31:15;10.90;99.90
47961;DHT22;33721;48.852;9.936;2023-01-15T05:33:42;10.90;99.90
47961;DHT22;33721;48.852;9.936;2023-01-15T05:36:14;10.90;99.90
47961;DHT22;33721;48.852;9.936;2023-01-15T05:38:40;11.10;99.90
47961;DHT22;33721;48.852;9.936;2023-01-15T05:41:09;11.10;99.90
47961;DHT22;33721;48.852;9.936;2023-01-15T05:43:54;11.00;99.90
47961;DHT22;33721;48.852;9.936;2023-01-15T05:46:21;11.10;99.90
47961;DHT22;33721;48.852;9.936;2023-01-15T05:48:47;11.20;99.90
47961;DHT22;33721;48.852;9.936;2023-01-15T05:51:13;11.20;99.90
47961;DHT22;33721;48.852;9.936;2023-01-15T05:53:38;11.30;99.90
47961;DHT22;33721;48.852;9.936;2023-01-15T05:56:04;11.40;99.90
47961;DHT22;33721;48.852;9.936;2023-01-15T05:58:30;11.50;99.90
47961;DHT22;33721;48.852;9.936;2023-01-15T06:00:56;11.50;99.90
47961;DHT22;33721;48.852;9.936;2023-01-15T06:03:23;11.40;99.90
47961;DHT22;33721;48.852;9.936;2023-01-15T06:05:53;11.40;99.90
47961;DHT22;33721;48.852;9.936;2023-01-15T06:08:19;11.30;99.90
47961;DHT22;33721;48.852;9.936;2023-01-15T06:10:46;11.10;99.90
47961;DHT22;33721;48.852;9.936;2023-01-15T06:13:12;11.00;99.90
47961;DHT22;33721;48.852;9.936;2023-01-15T06:15:39;11.00;99.90
47961;DHT22;33721;48.852;9.936;2023-01-15T06:18:04;10.70;99.90
47961;DHT22;33721;48.852;9.936;2023-01-15T06:20:30;10.30;99.90
47961;DHT22;33721;48.852;9.936;2023-01-15T06:22:55;9.70;99.90
47961;DHT22;33721;48.852;9.936;2023-01-15T06:25:21;9.30;99.90
47961;DHT22;33721;48.852;9.936;2023-01-15T06:27:47;9.10;99.90
47961;DHT22;33721;48.852;9.936;2023-01-15T06:30:14;8.90;99.90
47961;DHT22;33721;48.852;9.936;2023-01-15T06:32:40;8.80;99.90
47961;DHT22;33721;48.852;9.936;2023-01-15T06:35:06;8.60;99.90
47961;DHT22;33721;48.852;9.936;2023-01-15T06:37:32;8.50;99.90
47961;DHT22;33721;48.852;9.936;2023-01-15T06:39:58;8.40;99.90
47961;DHT22;33721;48.852;9.936;2023-01-15T06:42:23;8.20;99.90
47961;DHT22;33721;48.852;9.936;2023-01-15T06:45:10;8.10;99.90
47961;DHT22;33721;48.852;9.936;2023-01-15T06:47:55;8.00;99.90
47961;DHT22;33721;48.852;9.936;2023-01-15T06:50:22;7.90;99.90
47961;DHT22;33721;48.852;9.936;2023-01-15T06:52:47;7.90;99.90
47961;DHT22;33721;48.852;9.936;2023-01-15T06:55:13;7.80;99.90
47961;DHT22;33721;48.852;9.936;2023-01-15T06:57:39;7.80;99.90
47961;DHT22;33721;48.852;9.936;2023-01-15T07:00:07;7.70;99.90
47961;DHT22;33721;48.852;9.936;2023-01-15T07:02:33;7.60;99.90
47961;DHT22;33721;48.852;9.936;2023-01-15T07:04:59;7.50;99.90
47961;DHT22;33721;48.852;9.936;2023-01-15T07:07:27;7.50;99.90
47961;DHT22;33721;48.852;9.936;2023-01-15T07:09:53;7.50;99.90
47961;DHT22;33721;48.852;9.936;2023-01-15T07:12:19;7.40;99.90
47961;DHT22;33721;48.852;9.936;2023-01-15T07:14:45;7.40;99.90
47961;DHT22;33721;48.852;9.936;2023-01-15T07:17:11;7.40;99.90
47961;DHT22;33721;48.852;9.936;2023-01-15T07:19:37;7.40;99.90
47961;DHT22;33721;48.852;9.936;2023-01-15T07:22:03;7.30;99.90
47961;DHT22;33721;48.852;9.936;2023-01-15T07:24:29;7.30;99.90
47961;DHT22;33721;48.852;9.936;2023-01-15T07:26:55;7.30;99.90
47961;DHT22;33721;48.852;9.936;2023-01-15T07:29:21;7.20;99.90
47961;DHT22;33721;48.852;9.936;2023-01-15T07:31:48;7.20;99.90
47961;DHT22;33721;48.852;9.936;2023-01-15T07:34:13;7.20;99.90
47961;DHT22;33721;48.852;9.936;2023-01-15T07:36:39;7.10;99.90
47961;DHT22;33721;48.852;9.936;2023-01-15T07:39:07;7.00;99.90
47961;DHT22;33721;48.852;9.936;2023-01-15T07:41:33;7.00;99.90
47961;DHT22;33721;48.852;9.936;2023-01-15T07:44:17;6.90;99.90
47961;DHT22;33721;48.852;9.936;2023-01-15T07:47:01;6.90;99.90
47961;DHT22;33721;48.852;9.936;2023-01-15T07:49:47;6.90;99.90
47961;DHT22;33721;48.852;9.936;2023-01-15T07:52:16;6.90;99.90
47961;DHT22;33721;48.852;9.936;2023-01-15T07:54:43;6.80;99.90
47961;DHT22;33721;48.852;9.936;2023-01-15T07:57:09;6.80;99.90
47961;DHT22;33721;48.852;9.936;2023-01-15T07:59:35;6.80;99.90
47961;DHT22;33721;48.852;9.936;2023-01-15T08:02:01;6.80;99.90
47961;DHT22;33721;48.852;9.936;2023-01-15T08:04:27;6.70;99.90
47961;DHT22;33721;48.852;9.936;2023-01-15T08:06:52;6.50;99.90
47961;DHT22;33721;48.852;9.936;2023-01-15T08:09:18;6.40;99.90
47961;DHT22;33721;48.852;9.936;2023-01-15T08:11:44;6.20;99.90
47961;DHT22;33721;48.852;9.936;2023-01-15T08:14:28;6.10;99.90
47961;DHT22;33721;48.852;9.936;2023-01-15T08:17:12;6.00;99.90
47961;DHT22;33721;48.852;9.936;2023-01-15T08:19:38;6.00;99.90
47961;DHT22;33721;48.852;9.936;2023-01-15T08:22:03;6.00;99.90
47961;DHT22;33721;48.852;9.936;2023-01-15T08:24:29;5.90;99.90
47961;DHT22;33721;48.852;9.936;2023-01-15T08:26:54;5.90;99.90
47961;DHT22;33721;48.852;9.936;2023-01-15T08:29:21;5.80;99.90
47961;DHT22;33721;48.852;9.936;2023-01-15T08:31:46;5.80;99.90
47961;DHT22;33721;48.852;9.936;2023-01-15T08:34:12;5.90;99.90
47961;DHT22;33721;48.852;9.936;2023-01-15T08:36:38;5.80;99.90
47961;DHT22;33721;48.852;9.936;2023-01-15T08:39:04;5.80;99.90
47961;DHT22;33721;48.852;9.936;2023-01-15T08:41:30;5.70;99.90
47961;DHT22;33721;48.852;9.936;2023-01-15T08:43:56;5.70;99.90
47961;DHT22;33721;48.852;9.936;2023-01-15T08:46:21;5.60;99.90
47961;DHT22;33721;48.852;9.936;2023-01-15T08:48:47;5.50;99.90
47961;DHT22;33721;48.852;9.936;2023-01-15T08:51:14;5.50;99.90
47961;DHT22;33721;48.852;9.936;2023-01-15T08:53:40;5.40;99.90
47961;DHT22;33721;48.852;9.936;2023-01-15T08:56:17;5.40;99.90
47961;DHT22;33721;48.852;9.936;2023-01-15T08:58:44;5.40;99.90
47961;DHT22;33721;48.852;9.936;2023-01-15T09:01:10;5.40;99.90
47961;DHT22;33721;48.852;9.936;2023-01-15T09:03:40;5.40;99.90
47961;DHT22;33721;48.852;9.936;2023-01-15T09:06:06;5.40;99.90
47961;DHT22;33721;48.852;9.936;2023-01-15T09:08:32;5.30;99.90
47961;DHT22;33721;48.852;9.936;2023-01-15T09:10:58;5.30;99.90
47961;DHT22;33721;48.852;9.936;2023-01-15T09:13:26;5.30;99.90
47961;DHT22;33721;48.852;9.936;2023-01-15T09:15:52;5.30;99.90
47961;DHT22;33721;48.852;9.936;2023-01-15T09:18:18;5.30;99.90
47961;DHT22;33721;48.852;9.936;2023-01-15T09:20:47;5.20;99.90
47961;DHT22;33721;48.852;9.936;2023-01-15T09:23:13;5.20;99.90
47961;DHT22;33721;48.852;9.936;2023-01-15T09:25:40;5.20;99.90
47961;DHT22;33721;48.852;9.936;2023-01-15T09:28:07;5.20;99.90
47961;DHT22;33721;48.852;9.936;2023-01-15T09:30:32;5.20;99.90
47961;DHT22;33721;48.852;9.936;2023-01-15T09:32:58;5.30;99.90
47961;DHT22;33721;48.852;9.936;2023-01-15T09:35:24;5.30;99.90
47961;DHT22;33721;48.852;9.936;2023-01-15T09:37:53;5.20;99.90
47961;DHT22;33721;48.852;9.936;2023-01-15T09:43:07;5.10;99.90
47961;DHT22;33721;48.852;9.936;2023-01-15T09:45:42;5.20;99.90
47961;DHT22;33721;48.852;9.936;2023-01-15T09:51:30;5.10;99.90
47961;DHT22;33721;48.852;9.936;2023-01-15T09:54:42;5.20;99.90
47961;DHT22;33721;48.852;9.936;2023-01-15T09:57:14;5.10;99.90
47961;DHT22;33721;48.852;9.936;2023-01-15T09:59:43;5.10;99.90
47961;DHT22;33721;48.852;9.936;2023-01-15T10:02:45;5.00;99.90
47961;DHT22;33721;48.852;9.936;2023-01-15T10:05:21;5.00;99.90
47961;DHT22;33721;48.852;9.936;2023-01-15T10:07:58;5.00;99.90
47961;DHT22;33721;48.852;9.936;2023-01-15T10:10:29;5.00;99.90
47961;DHT22;33721;48.852;9.936;2023-01-15T10:13:05;4.90;99.90
47961;DHT22;33721;48.852;9.936;2023-01-15T10:15:43;4.90;99.90
47961;DHT22;33721;48.852;9.936;2023-01-15T10:18:25;4.90;99.90
47961;DHT22;33721;48.852;9.936;2023-01-15T10:23:48;4.90;99.90
47961;DHT22;33721;48.852;9.936;2023-01-15T10:29:22;5.00;99.90
47961;DHT22;33721;48.852;9.936;2023-01-15T10:32:00;4.90;99.90
47961;DHT22;33721;48.852;9.936;2023-01-15T10:37:23;5.00;99.90
47961;DHT22;33721;48.852;9.936;2023-01-15T10:40:11;5.00;99.90
47961;DHT22;33721;48.852;9.936;2023-01-15T10:43:01;4.90;99.90
47961;DHT22;33721;48.852;9.936;2023-01-15T10:48:20;4.90;99.90
47961;DHT22;33721;48.852;9.936;2023-01-15T10:50:49;4.80;99.90
47961;DHT22;33721;48.852;9.936;2023-01-15T10:55:50;4.80;99.90
47961;DHT22;33721;48.852;9.936;2023-01-15T10:58:39;4.80;99.90
47961;DHT22;33721;48.852;9.936;2023-01-15T11:01:13;4.80;99.90
47961;DHT22;33721;48.852;9.936;2023-01-15T11:03:42;4.80;99.90
47961;DHT22;33721;48.852;9.936;2023-01-15T11:06:14;4.70;99.90
47961;DHT22;33721;48.852;9.936;2023-01-15T11:08:42;4.60;99.90
47961;DHT22;33721;48.852;9.936;2023-01-15T11:11:29;4.60;99.90
47961;DHT22;33721;48.852;9.936;2023-01-15T11:14:14;4.60;99.90
47961;DHT22;33721;48.852;9.936;2023-01-15T11:16:58;4.60;99.90
47961;DHT22;33721;48.852;9.936;2023-01-15T11:19:37;4.50;99.90
47961;DHT22;33721;48.852;9.936;2023-01-15T11:22:10;4.50;99.90
47961;DHT22;33721;48.852;9.936;2023-01-15T11:24:44;4.60;99.90
47961;DHT22;33721;48.852;9.936;2023-01-15T11:27:18;4.60;99.90
47961;DHT22;33721;48.852;9.936;2023-01-15T11:29:44;4.50;99.90
47961;DHT22;33721;48.852;9.936;2023-01-15T11:32:29;4.40;99.90
47961;DHT22;33721;48.852;9.936;2023-01-15T11:34:57;4.40;99.90
47961;DHT22;33721;48.852;9.936;2023-01-15T11:37:24;4.30;99.90
47961;DHT22;33721;48.852;9.936;2023-01-15T11:39:58;4.10;99.90
47961;DHT22;33721;48.852;9.936;2023-01-15T11:42:36;4.10;99.90
47961;DHT22;33721;48.852;9.936;2023-01-15T11:45:21;4.00;99.90
47961;DHT22;33721;48.852;9.936;2023-01-15T11:53:33;3.80;99.90
47961;DHT22;33721;48.852;9.936;2023-01-15T11:56:02;3.90;99.90
47961;DHT22;33721;48.852;9.936;2023-01-15T11:58:47;3.80;99.90
47961;DHT22;33721;48.852;9.936;2023-01-15T12:01:30;3.80;99.90
47961;DHT22;33721;48.852;9.936;2023-01-15T12:04:02;3.80;99.90
47961;DHT22;33721;48.852;9.936;2023-01-15T12:06:29;3.80;99.90
47961;DHT22;33721;48.852;9.936;2023-01-15T12:12:01;3.80;99.90
47961;DHT22;33721;48.852;9.936;2023-01-15T12:17:52;3.70;99.90
47961;DHT22;33721;48.852;9.936;2023-01-15T12:29:10;3.50;99.90
47961;DHT22;33721;48.852;9.936;2023-01-15T12:31:45;3.40;99.90
47961;DHT22;33721;48.852;9.936;2023-01-15T12:34:33;3.40;99.90
47961;DHT22;33721;48.852;9.936;2023-01-15T12:37:14;3.40;99.90
47961;DHT22;33721;48.852;9.936;2023-01-15T12:39:48;3.30;99.90
47961;DHT22;33721;48.852;9.936;2023-01-15T12:42:19;3.30;99.90
47961;DHT22;33721;48.852;9.936;2023-01-15T12:45:24;3.30;99.90
47961;DHT22;33721;48.852;9.936;2023-01-15T12:50:34;3.30;99.90
47961;DHT22;33721;48.852;9.936;2023-01-15T12:55:44;3.30;99.90
47961;DHT22;33721;48.852;9.936;2023-01-15T13:01:03;3.20;99.90
47961;DHT22;33721;48.852;9.936;2023-01-15T13:03:38;3.20;99.90
47961;DHT22;33721;48.852;9.936;2023-01-15T13:06:10;3.20;99.90
47961;DHT22;33721;48.852;9.936;2023-01-15T13:11:25;3.20;99.90
47961;DHT22;33721;48.852;9.936;2023-01-15T13:13:51;3.20;99.90
47961;DHT22;33721;48.852;9.936;2023-01-15T13:19:22;3.20;99.90
47961;DHT22;33721;48.852;9.936;2023-01-15T13:21:50;3.20;99.90
47961;DHT22;33721;48.852;9.936;2023-01-15T13:33:12;3.20;99.90
47961;DHT22;33721;48.852;9.936;2023-01-15T13:35:46;3.20;99.90
47961;DHT22;33721;48.852;9.936;2023-01-15T13:38:19;3.20;99.90
47961;DHT22;33721;48.852;9.936;2023-01-15T13:40:48;3.20;99.90
47961;DHT22;33721;48.852;9.936;2023-01-15T13:43:29;3.20;99.90
47961;DHT22;33721;48.852;9.936;2023-01-15T13:45:56;3.20;99.90
47961;DHT22;33721;48.852;9.936;2023-01-15T13:48:35;3.20;99.90
47961;DHT22;33721;48.852;9.936;2023-01-15T13:51:04;3.30;99.90
47961;DHT22;33721;48.852;9.936;2023-01-15T13:53:37;3.30;99.90
47961;DHT22;33721;48.852;9.936;2023-01-15T13:56:09;3.30;99.90
47961;DHT22;33721;48.852;9.936;2023-01-15T13:58:38;3.30;99.90
47961;DHT22;33721;48.852;9.936;2023-01-15T14:06:44;3.40;99.90
47961;DHT22;33721;48.852;9.936;2023-01-15T14:09:26;3.40;99.90
47961;DHT22;33721;48.852;9.936;2023-01-15T14:26:47;3.60;99.90
47961;DHT22;33721;48.852;9.936;2023-01-15T14:35:36;3.60;99.90
47961;DHT22;33721;48.852;9.936;2023-01-15T14:38:06;3.70;99.90
47961;DHT22;33721;48.852;9.936;2023-01-15T14:40:34;3.70;99.90
47961;DHT22;33721;48.852;9.936;2023-01-15T14:43:08;3.70;99.90
47961;DHT22;33721;48.852;9.936;2023-01-15T14:45:43;3.80;99.90
47961;DHT22;33721;48.852;9.936;2023-01-15T14:50:46;3.80;99.90
47961;DHT22;33721;48.852;9.936;2023-01-15T14:56:03;3.80;99.90
47961;DHT22;33721;48.852;9.936;2023-01-15T14:58:36;3.80;99.90
47961;DHT22;33721;48.852;9.936;2023-01-15T15:01:35;3.80;99.90
47961;DHT22;33721;48.852;9.936;2023-01-15T15:09:25;4.00;99.90
47961;DHT22;33721;48.852;9.936;2023-01-15T15:11:53;4.00;99.90
47961;DHT22;33721;48.852;9.936;2023-01-15T15:14:43;4.00;99.90
47961;DHT22;33721;48.852;9.936;2023-01-15T15:17:19;4.00;99.90
47961;DHT22;33721;48.852;9.936;2023-01-15T15:19:52;4.00;99.90
47961;DHT22;33721;48.852;9.936;2023-01-15T15:22:23;3.90;99.90
47961;DHT22;33721;48.852;9.936;2023-01-15T15:24:53;3.90;99.90
47961;DHT22;33721;48.852;9.936;2023-01-15T15:27:22;3.90;99.90
47961;DHT22;33721;48.852;9.936;2023-01-15T15:29:48;4.00;99.90
47961;DHT22;33721;48.852;9.936;2023-01-15T15:32:21;4.00;99.90
47961;DHT22;33721;48.852;9.936;2023-01-15T15:34:49;4.00;99.90
47961;DHT22;33721;48.852;9.936;2023-01-15T15:37:24;4.00;99.90
47961;DHT22;33721;48.852;9.936;2023-01-15T15:42:22;4.10;99.90
47961;DHT22;33721;48.852;9.936;2023-01-15T15:45:19;4.00;99.90
47961;DHT22;33721;48.852;9.936;2023-01-15T15:48:29;4.00;99.90
47961;DHT22;33721;48.852;9.936;2023-01-15T15:51:33;3.90;99.90
47961;DHT22;33721;48.852;9.936;2023-01-15T15:59:30;3.80;99.90
47961;DHT22;33721;48.852;9.936;2023-01-15T16:01:59;3.70;99.90
47961;DHT22;33721;48.852;9.936;2023-01-15T16:04:26;3.80;99.90
47961;DHT22;33721;48.852;9.936;2023-01-15T16:06:52;3.70;99.90
47961;DHT22;33721;48.852;9.936;2023-01-15T16:09:22;3.80;99.90
47961;DHT22;33721;48.852;9.936;2023-01-15T16:11:50;3.80;99.90
47961;DHT22;33721;48.852;9.936;2023-01-15T16:14:18;3.90;99.90
47961;DHT22;33721;48.852;9.936;2023-01-15T16:16:46;4.00;99.90
47961;DHT22;33721;48.852;9.936;2023-01-15T16:19:17;4.00;99.90
47961;DHT22;33721;48.852;9.936;2023-01-15T16:21:44;3.90;99.90
47961;DHT22;33721;48.852;9.936;2023-01-15T16:24:27;3.90;99.90
47961;DHT22;33721;48.852;9.936;2023-01-15T16:27:04;3.90;99.90
47961;DHT22;33721;48.852;9.936;2023-01-15T16:29:33;3.80;99.90
47961;DHT22;33721;48.852;9.936;2023-01-15T16:32:01;3.80;99.90
47961;DHT22;33721;48.852;9.936;2023-01-15T16:34:29;3.70;99.90
47961;DHT22;33721;48.852;9.936;2023-01-15T16:36:56;3.70;99.90
47961;DHT22;33721;48.852;9.936;2023-01-15T16:39:42;3.70;99.90
47961;DHT22;33721;48.852;9.936;2023-01-15T16:45:00;3.60;99.90
47961;DHT22;33721;48.852;9.936;2023-01-15T16:47:35;3.60;99.90
47961;DHT22;33721;48.852;9.936;2023-01-15T16:52:52;3.60;99.90
47961;DHT22;33721;48.852;9.936;2023-01-15T16:55:40;3.60;99.90
47961;DHT22;33721;48.852;9.936;2023-01-15T17:00:46;3.60;99.90
47961;DHT22;33721;48.852;9.936;2023-01-15T17:03:20;3.70;99.90
47961;DHT22;33721;48.852;9.936;2023-01-15T17:05:55;3.70;99.90
47961;DHT22;33721;48.852;9.936;2023-01-15T17:08:22;3.70;99.90
47961;DHT22;33721;48.852;9.936;2023-01-15T17:10:54;3.60;99.90
47961;DHT22;33721;48.852;9.936;2023-01-15T17:13:23;3.70;99.90
47961;DHT22;33721;48.852;9.936;2023-01-15T17:16:04;3.60;99.90
47961;DHT22;33721;48.852;9.936;2023-01-15T17:18:30;3.60;99.90
47961;DHT22;33721;48.852;9.936;2023-01-15T17:20:57;3.60;99.90
47961;DHT22;33721;48.852;9.936;2023-01-15T17:23:26;3.60;99.90
47961;DHT22;33721;48.852;9.936;2023-01-15T17:25:53;3.60;99.90
47961;DHT22;33721;48.852;9.936;2023-01-15T17:28:19;3.60;99.90
47961;DHT22;33721;48.852;9.936;2023-01-15T17:30:49;3.50;99.90
47961;DHT22;33721;48.852;9.936;2023-01-15T17:33:17;3.40;99.90
47961;DHT22;33721;48.852;9.936;2023-01-15T17:35:43;3.40;99.90
47961;DHT22;33721;48.852;9.936;2023-01-15T17:38:13;3.40;99.90
47961;DHT22;33721;48.852;9.936;2023-01-15T17:40:39;3.30;99.90
47961;DHT22;33721;48.852;9.936;2023-01-15T17:43:05;3.40;99.90
47961;DHT22;33721;48.852;9.936;2023-01-15T17:45:31;3.40;99.90
47961;DHT22;33721;48.852;9.936;2023-01-15T17:47:58;3.30;99.90
47961;DHT22;33721;48.852;9.936;2023-01-15T17:50:23;3.40;99.90
47961;DHT22;33721;48.852;9.936;2023-01-15T17:52:50;3.40;99.90
47961;DHT22;33721;48.852;9.936;2023-01-15T17:55:18;3.40;99.90
47961;DHT22;33721;48.852;9.936;2023-01-15T17:58:03;3.50;99.90
47961;DHT22;33721;48.852;9.936;2023-01-15T18:00:48;3.40;99.90
47961;DHT22;33721;48.852;9.936;2023-01-15T18:03:34;3.20;99.90
47961;DHT22;33721;48.852;9.936;2023-01-15T18:06:20;3.30;99.90
47961;DHT22;33721;48.852;9.936;2023-01-15T18:08:50;3.30;99.90
47961;DHT22;33721;48.852;9.936;2023-01-15T18:11:17;3.30;99.90
47961;DHT22;33721;48.852;9.936;2023-01-15T18:13:42;3.30;99.90